Akogare — JPDL — position and weather

sailwx.info

Track history (hours):
 
Tides and Currents Weather Stations Pressure Air Temp Water Temp Dewpoint Dewpoint Depression Visibility Wind Speed Wind Dir Waves Ship Positions

Akogare (Japan)

Ship's website: http://www.akogare.or.jp/eng/top.html

Last reported at 2019-Sep-20 04:36 UTC. Time now 2019-Sep-21 21:29 UTC.
Position N 35°33' E 139°59'.

Length 52 m; draft 4.5 m.

Type: Sailing vessel. MMSI: 431005001.

Date/timePositionNaut miles runAvg speedWind from/ knotsBaromVisibWave heightAir tempDewpointWater temp
2019-Sep-20 04:36N 35°33' E 139°59'2 6.5
2019-Sep-20 04:22N 35°32' E 139°57'2 4.7
2019-Sep-20 04:00N 35°32' E 139°55'2 3.4
2019-Sep-20 03:30N 35°31' E 139°53'3 6.3
2019-Sep-20 03:00N 35°30' E 139°50'3 5.6
2019-Sep-20 02:30N 35°28' E 139°47'3 5.4
2019-Sep-20 02:00N 35°27' E 139°44'2 4.9
2019-Sep-20 01:30N 35°27' E 139°41'3 4.4
2019-Sep-20 00:55N 35°28' E 139°38'0 0.0
2019-Sep-20 00:25N 35°28' E 139°38'0 0.0
2019-Sep-19 23:58N 35°28' E 139°38'0 0.0
2019-Sep-19 23:28N 35°28' E 139°38'0 0.0
2019-Sep-19 22:58N 35°28' E 139°38'0 0.0
2019-Sep-19 22:28N 35°28' E 139°38'0 0.0
2019-Sep-19 21:58N 35°28' E 139°38'0 0.0
2019-Sep-19 21:28N 35°28' E 139°38'0 0.0
2019-Sep-19 20:58N 35°28' E 139°38'0 0.0
2019-Sep-19 20:28N 35°28' E 139°38'0 0.0
2019-Sep-19 19:58N 35°28' E 139°38'0 0.0
2019-Sep-19 19:28N 35°28' E 139°38'0 0.0
2019-Sep-19 18:55N 35°28' E 139°38'0 0.0
2019-Sep-19 18:28N 35°28' E 139°38'0 0.0
2019-Sep-19 17:58N 35°28' E 139°38'0 0.0
2019-Sep-19 17:28N 35°28' E 139°38'0 0.0
2019-Sep-19 16:58N 35°28' E 139°38'0 0.0
2019-Sep-19 16:28N 35°28' E 139°38'0 0.0
2019-Sep-19 15:58N 35°28' E 139°38'0 0.0
2019-Sep-19 15:28N 35°28' E 139°38'0 0.0
2019-Sep-19 14:58N 35°28' E 139°38'0 0.0
2019-Sep-19 14:28N 35°28' E 139°38'0 0.0
2019-Sep-19 13:58N 35°28' E 139°38'0 0.0
2019-Sep-19 13:28N 35°28' E 139°38'0 0.0
2019-Sep-19 12:58N 35°28' E 139°38'0 0.0
2019-Sep-19 12:28N 35°28' E 139°38'0 0.0
2019-Sep-19 11:58N 35°28' E 139°38'0 0.0
2019-Sep-19 11:28N 35°28' E 139°38'0 0.0
2019-Sep-19 10:58N 35°28' E 139°38'0 0.0
2019-Sep-19 10:28N 35°28' E 139°38'0 0.0
2019-Sep-19 09:58N 35°28' E 139°38'0 0.0
2019-Sep-19 09:28N 35°28' E 139°38'0 0.0
2019-Sep-19 08:58N 35°28' E 139°38'0 0.0
2019-Sep-19 08:28N 35°28' E 139°38'0 0.0
2019-Sep-19 07:58N 35°28' E 139°38'0 0.0
2019-Sep-19 07:28N 35°28' E 139°38'0 0.0
2019-Sep-19 06:58N 35°28' E 139°38'0 0.0
2019-Sep-19 06:28N 35°28' E 139°38'0 0.0
2019-Sep-19 06:00N 35°28' E 139°38'0 0.6
2019-Sep-19 05:30N 35°28' E 139°39'1 2.2
2019-Sep-19 05:00N 35°27' E 139°40'3 6.0
2019-Sep-19 04:31N 35°27' E 139°44'2 4.4
2019-Sep-19 04:00N 35°28' E 139°46'4 7.1
2019-Sep-19 03:27N 35°31' E 139°49'3 6.6
2019-Sep-19 02:59N 35°33' E 139°51'3 2.0
2019-Sep-19 01:41N 35°34' E 139°54'1 2.1
2019-Sep-19 01:07N 35°34' E 139°56'1 2.4
2019-Sep-19 00:53N 35°34' E 139°56'1 1.5
2019-Sep-19 00:15N 35°33' E 139°57'0 0.8
2019-Sep-18 23:57N 35°33' E 139°57'1 1.1
2019-Sep-18 23:20N 35°33' E 139°56'1 2.3
2019-Sep-18 22:59N 35°33' E 139°55'1 2.3
2019-Sep-18 22:30N 35°33' E 139°54'2 3.9
2019-Sep-18 22:00N 35°32' E 139°52'3 5.9
2019-Sep-18 21:30N 35°34' E 139°49'0 0.6
2019-Sep-18 20:50N 35°33' E 139°49'0 0.0
2019-Sep-18 19:44N 35°33' E 139°49'0 0.0
2019-Sep-18 19:29N 35°33' E 139°49'0 0.0
2019-Sep-18 18:47N 35°33' E 139°49'0 0.0
2019-Sep-18 18:29N 35°33' E 139°49'0 0.0
2019-Sep-18 17:41N 35°33' E 139°49'0 0.0
2019-Sep-18 17:29N 35°33' E 139°49'0 0.0
2019-Sep-18 16:59N 35°33' E 139°49'0 0.0
2019-Sep-18 16:29N 35°33' E 139°49'0 0.0
2019-Sep-18 15:53N 35°33' E 139°49'0 0.0
2019-Sep-18 15:29N 35°33' E 139°49'0 0.0
2019-Sep-18 14:35N 35°33' E 139°49'0 0.0
2019-Sep-18 13:29N 35°33' E 139°49'0 0.0
2019-Sep-18 12:59N 35°33' E 139°49'0 0.0
2019-Sep-18 12:29N 35°33' E 139°49'0 0.0
2019-Sep-18 11:59N 35°33' E 139°49'0 0.0
2019-Sep-18 11:26N 35°33' E 139°49'0 0.0
2019-Sep-18 10:47N 35°33' E 139°49'0 0.0
2019-Sep-18 10:29N 35°33' E 139°49'0 0.0
2019-Sep-18 09:47N 35°33' E 139°49'0 0.0
2019-Sep-18 09:29N 35°33' E 139°49'0 0.0
2019-Sep-18 08:31N 35°33' E 139°49'0 0.0
2019-Sep-18 08:30N 35°33' E 139°49'1 1.6
2019-Sep-18 07:59N 35°33' E 139°50'4 6.4
2019-Sep-18 07:26N 35°33' E 139°54'2 4.4
2019-Sep-18 06:58N 35°33' E 139°56'1 1.8
2019-Sep-18 06:29N 35°34' E 139°56'1 1.3
2019-Sep-18 05:57N 35°34' E 139°55'1 2.2
2019-Sep-18 05:30N 35°34' E 139°54'1 1.3
2019-Sep-18 04:58N 35°34' E 139°53'2 2.8
2019-Sep-18 04:23N 35°36' E 139°54'1 0.1
2019-Sep-17 07:01N 35°36' E 139°52'0 4.4
2019-Sep-17 06:59N 35°36' E 139°52'2 4.5
2019-Sep-17 06:28N 35°37' E 139°49'2 4.7
2019-Sep-17 05:58N 35°36' E 139°47'3 4.9
2019-Sep-17 05:27N 35°39' E 139°46'4 5.6
2019-Sep-17 04:45N 35°35' E 139°48'2 7.0
2019-Sep-17 04:30N 35°34' E 139°49'3 5.3
2019-Sep-17 04:01N 35°32' E 139°51'3 5.3
2019-Sep-17 03:30N 35°30' E 139°49'2 3.2
2019-Sep-17 03:00N 35°29' E 139°47'1 2.4
2019-Sep-17 02:30N 35°28' E 139°47'1 2.1
2019-Sep-17 02:00N 35°27' E 139°45'3 5.5
2019-Sep-17 01:30N 35°26' E 139°42'3 6.2
2019-Sep-17 01:00N 35°28' E 139°39'0 0.9
2019-Sep-17 00:30N 35°28' E 139°38'0 0.0
2019-Sep-17 00:00N 35°28' E 139°38'1 2.2
2019-Sep-16 23:30N 35°27' E 139°40'3 5.5
2019-Sep-16 23:00N 35°26' E 139°42'1 1.7
2019-Sep-16 22:30N 35°25' E 139°42'1 3.0
2019-Sep-16 22:00N 35°24' E 139°43'2 3.1
2019-Sep-16 21:30N 35°22' E 139°43'2 3.4
2019-Sep-16 21:00N 35°21' E 139°43'3 5.7
2019-Sep-16 20:30N 35°18' E 139°44'3 6.6
2019-Sep-16 20:00N 35°15' E 139°47'3 6.4
2019-Sep-16 19:30N 35°12' E 139°47'6 5.1
2019-Sep-16 18:16N 35°06' E 139°45'  
2019-Sep-11 08:30N 33°59' E 135°01'3 6.0
2019-Sep-11 08:00N 34°02' E 135°00'4 6.2
2019-Sep-11 07:21N 34°06' E 134°60'4 7.2
2019-Sep-11 06:45N 34°11' E 134°59'3 6.7
2019-Sep-11 06:22N 34°13' E 134°59'3 7.1
2019-Sep-11 06:00N 34°16' E 134°59'3 7.0
2019-Sep-11 05:30N 34°19' E 134°59'3 6.7
2019-Sep-11 05:00N 34°22' E 135°00'4 7.2
2019-Sep-11 04:30N 34°26' E 135°03'4 7.4
2019-Sep-11 04:00N 34°29' E 135°05'4 7.3
2019-Sep-11 03:30N 34°32' E 135°07'3 6.6
2019-Sep-11 03:00N 34°35' E 135°09'3 6.1
2019-Sep-11 02:30N 34°38' E 135°11'3 5.3
2019-Sep-11 02:00N 34°40' E 135°11'1 1.3
2019-Sep-11 01:19N 34°41' E 135°11'0 0.0
2019-Sep-11 00:55N 34°41' E 135°11'0 0.0
2019-Sep-11 00:25N 34°41' E 135°11'0 0.0
2019-Sep-10 23:51N 34°41' E 135°11'0 0.0
2019-Sep-10 23:27N 34°41' E 135°11'0 0.0
2019-Sep-10 22:57N 34°41' E 135°11'0 0.0
2019-Sep-10 22:27N 34°41' E 135°11'0 0.0
2019-Sep-10 21:57N 34°41' E 135°11'0 0.0
2019-Sep-10 21:15N 34°41' E 135°11'0 0.0
2019-Sep-10 20:57N 34°41' E 135°11'0 0.0
2019-Sep-10 20:21N 34°41' E 135°11'0 0.0
2019-Sep-10 19:57N 34°41' E 135°11'0 0.0
2019-Sep-10 19:27N 34°41' E 135°11'0 0.0
2019-Sep-10 18:45N 34°41' E 135°11'0 0.0
2019-Sep-10 18:27N 34°41' E 135°11'0 0.0
2019-Sep-10 17:57N 34°41' E 135°11'0 0.0
2019-Sep-10 17:27N 34°41' E 135°11'0 0.0
2019-Sep-10 16:57N 34°41' E 135°11'0 0.0
2019-Sep-10 16:27N 34°41' E 135°11'0 0.0
2019-Sep-10 15:57N 34°41' E 135°11'0 0.0
2019-Sep-10 15:27N 34°41' E 135°11'0 0.0
2019-Sep-10 14:57N 34°41' E 135°11'0 0.0
2019-Sep-10 14:27N 34°41' E 135°11'0 0.0
2019-Sep-10 13:51N 34°41' E 135°11'0 0.0
2019-Sep-10 13:27N 34°41' E 135°11'0 0.0
2019-Sep-10 12:57N 34°41' E 135°11'0 0.0
2019-Sep-10 12:27N 34°41' E 135°11'0 0.0
2019-Sep-10 11:57N 34°41' E 135°11'0 0.0
2019-Sep-10 11:27N 34°41' E 135°11'0 0.0
2019-Sep-10 10:57N 34°41' E 135°11'0 0.0
2019-Sep-10 10:27N 34°41' E 135°11'0 0.0
2019-Sep-10 09:57N 34°41' E 135°11'0 0.0
2019-Sep-10 09:27N 34°41' E 135°11'0 0.0
2019-Sep-10 08:57N 34°41' E 135°11'0 0.0
2019-Sep-10 08:27N 34°41' E 135°11'0 0.0
2019-Sep-10 07:57N 34°41' E 135°11'0 0.0
2019-Sep-10 07:27N 34°41' E 135°11'0 0.0
2019-Sep-10 06:45N 34°41' E 135°11'0 0.0
2019-Sep-10 06:27N 34°41' E 135°11'0 0.0
2019-Sep-10 05:57N 34°41' E 135°11'0 0.0
2019-Sep-10 05:27N 34°41' E 135°11'0 0.0
2019-Sep-10 04:57N 34°41' E 135°11'  
Track history (hours):
 
Tides and Currents Weather Stations Pressure Air Temp Water Temp Dewpoint Dewpoint Depression Visibility Wind Speed Wind Dir Waves Ship Positions

Akogare (Japan)

Ship's website: http://www.akogare.or.jp/eng/top.html

Last reported at 2019-Sep-20 04:36 UTC. Time now 2019-Sep-21 21:29 UTC.
Position N 35°33' E 139°59'.

Length 52 m; draft 4.5 m.

Type: Sailing vessel. MMSI: 431005001.

Date/timePositionNaut miles runAvg speedWind from/ knotsBaromVisibWave heightAir tempDewpointWater temp
2019-Sep-20 04:36N 35°33' E 139°59'2 6.5
2019-Sep-20 04:22N 35°32' E 139°57'2 4.7
2019-Sep-20 04:00N 35°32' E 139°55'2 3.4
2019-Sep-20 03:30N 35°31' E 139°53'3 6.3
2019-Sep-20 03:00N 35°30' E 139°50'3 5.6
2019-Sep-20 02:30N 35°28' E 139°47'3 5.4
2019-Sep-20 02:00N 35°27' E 139°44'2 4.9
2019-Sep-20 01:30N 35°27' E 139°41'3 4.4
2019-Sep-20 00:55N 35°28' E 139°38'0 0.0
2019-Sep-20 00:25N 35°28' E 139°38'0 0.0
2019-Sep-19 23:58N 35°28' E 139°38'0 0.0
2019-Sep-19 23:28N 35°28' E 139°38'0 0.0
2019-Sep-19 22:58N 35°28' E 139°38'0 0.0
2019-Sep-19 22:28N 35°28' E 139°38'0 0.0
2019-Sep-19 21:58N 35°28' E 139°38'0 0.0
2019-Sep-19 21:28N 35°28' E 139°38'0 0.0
2019-Sep-19 20:58N 35°28' E 139°38'0 0.0
2019-Sep-19 20:28N 35°28' E 139°38'0 0.0
2019-Sep-19 19:58N 35°28' E 139°38'0 0.0
2019-Sep-19 19:28N 35°28' E 139°38'0 0.0
2019-Sep-19 18:55N 35°28' E 139°38'0 0.0
2019-Sep-19 18:28N 35°28' E 139°38'0 0.0
2019-Sep-19 17:58N 35°28' E 139°38'0 0.0
2019-Sep-19 17:28N 35°28' E 139°38'0 0.0
2019-Sep-19 16:58N 35°28' E 139°38'0 0.0
2019-Sep-19 16:28N 35°28' E 139°38'0 0.0
2019-Sep-19 15:58N 35°28' E 139°38'0 0.0
2019-Sep-19 15:28N 35°28' E 139°38'0 0.0
2019-Sep-19 14:58N 35°28' E 139°38'0 0.0
2019-Sep-19 14:28N 35°28' E 139°38'0 0.0
2019-Sep-19 13:58N 35°28' E 139°38'0 0.0
2019-Sep-19 13:28N 35°28' E 139°38'0 0.0
2019-Sep-19 12:58N 35°28' E 139°38'0 0.0
2019-Sep-19 12:28N 35°28' E 139°38'0 0.0
2019-Sep-19 11:58N 35°28' E 139°38'0 0.0
2019-Sep-19 11:28N 35°28' E 139°38'0 0.0
2019-Sep-19 10:58N 35°28' E 139°38'0 0.0
2019-Sep-19 10:28N 35°28' E 139°38'0 0.0
2019-Sep-19 09:58N 35°28' E 139°38'0 0.0
2019-Sep-19 09:28N 35°28' E 139°38'0 0.0
2019-Sep-19 08:58N 35°28' E 139°38'0 0.0
2019-Sep-19 08:28N 35°28' E 139°38'0 0.0
2019-Sep-19 07:58N 35°28' E 139°38'0 0.0
2019-Sep-19 07:28N 35°28' E 139°38'0 0.0
2019-Sep-19 06:58N 35°28' E 139°38'0 0.0
2019-Sep-19 06:28N 35°28' E 139°38'0 0.0
2019-Sep-19 06:00N 35°28' E 139°38'0 0.6
2019-Sep-19 05:30N 35°28' E 139°39'1 2.2
2019-Sep-19 05:00N 35°27' E 139°40'3 6.0
2019-Sep-19 04:31N 35°27' E 139°44'2 4.4
2019-Sep-19 04:00N 35°28' E 139°46'4 7.1
2019-Sep-19 03:27N 35°31' E 139°49'3 6.6
2019-Sep-19 02:59N 35°33' E 139°51'3 2.0
2019-Sep-19 01:41N 35°34' E 139°54'1 2.1
2019-Sep-19 01:07N 35°34' E 139°56'1 2.4
2019-Sep-19 00:53N 35°34' E 139°56'1 1.5
2019-Sep-19 00:15N 35°33' E 139°57'0 0.8
2019-Sep-18 23:57N 35°33' E 139°57'1 1.1
2019-Sep-18 23:20N 35°33' E 139°56'1 2.3
2019-Sep-18 22:59N 35°33' E 139°55'1 2.3
2019-Sep-18 22:30N 35°33' E 139°54'2 3.9
2019-Sep-18 22:00N 35°32' E 139°52'3 5.9
2019-Sep-18 21:30N 35°34' E 139°49'0 0.6
2019-Sep-18 20:50N 35°33' E 139°49'0 0.0
2019-Sep-18 19:44N 35°33' E 139°49'0 0.0
2019-Sep-18 19:29N 35°33' E 139°49'0 0.0
2019-Sep-18 18:47N 35°33' E 139°49'0 0.0
2019-Sep-18 18:29N 35°33' E 139°49'0 0.0
2019-Sep-18 17:41N 35°33' E 139°49'0 0.0
2019-Sep-18 17:29N 35°33' E 139°49'0 0.0
2019-Sep-18 16:59N 35°33' E 139°49'0 0.0
2019-Sep-18 16:29N 35°33' E 139°49'0 0.0
2019-Sep-18 15:53N 35°33' E 139°49'0 0.0
2019-Sep-18 15:29N 35°33' E 139°49'0 0.0
2019-Sep-18 14:35N 35°33' E 139°49'0 0.0
2019-Sep-18 13:29N 35°33' E 139°49'0 0.0
2019-Sep-18 12:59N 35°33' E 139°49'0 0.0
2019-Sep-18 12:29N 35°33' E 139°49'0 0.0
2019-Sep-18 11:59N 35°33' E 139°49'0 0.0
2019-Sep-18 11:26N 35°33' E 139°49'0 0.0
2019-Sep-18 10:47N 35°33' E 139°49'0 0.0
2019-Sep-18 10:29N 35°33' E 139°49'0 0.0
2019-Sep-18 09:47N 35°33' E 139°49'0 0.0
2019-Sep-18 09:29N 35°33' E 139°49'0 0.0
2019-Sep-18 08:31N 35°33' E 139°49'0 0.0
2019-Sep-18 08:30N 35°33' E 139°49'1 1.6
2019-Sep-18 07:59N 35°33' E 139°50'4 6.4
2019-Sep-18 07:26N 35°33' E 139°54'2 4.4
2019-Sep-18 06:58N 35°33' E 139°56'1 1.8
2019-Sep-18 06:29N 35°34' E 139°56'1 1.3
2019-Sep-18 05:57N 35°34' E 139°55'1 2.2
2019-Sep-18 05:30N 35°34' E 139°54'1 1.3
2019-Sep-18 04:58N 35°34' E 139°53'2 2.8
2019-Sep-18 04:23N 35°36' E 139°54'1 0.1
2019-Sep-17 07:01N 35°36' E 139°52'0 4.4
2019-Sep-17 06:59N 35°36' E 139°52'2 4.5
2019-Sep-17 06:28N 35°37' E 139°49'2 4.7
2019-Sep-17 05:58N 35°36' E 139°47'3 4.9
2019-Sep-17 05:27N 35°39' E 139°46'4 5.6
2019-Sep-17 04:45N 35°35' E 139°48'2 7.0
2019-Sep-17 04:30N 35°34' E 139°49'3 5.3
2019-Sep-17 04:01N 35°32' E 139°51'3 5.3
2019-Sep-17 03:30N 35°30' E 139°49'2 3.2
2019-Sep-17 03:00N 35°29' E 139°47'1 2.4
2019-Sep-17 02:30N 35°28' E 139°47'1 2.1
2019-Sep-17 02:00N 35°27' E 139°45'3 5.5
2019-Sep-17 01:30N 35°26' E 139°42'3 6.2
2019-Sep-17 01:00N 35°28' E 139°39'0 0.9
2019-Sep-17 00:30N 35°28' E 139°38'0 0.0
2019-Sep-17 00:00N 35°28' E 139°38'1 2.2
2019-Sep-16 23:30N 35°27' E 139°40'3 5.5
2019-Sep-16 23:00N 35°26' E 139°42'1 1.7
2019-Sep-16 22:30N 35°25' E 139°42'1 3.0
2019-Sep-16 22:00N 35°24' E 139°43'2 3.1
2019-Sep-16 21:30N 35°22' E 139°43'2 3.4
2019-Sep-16 21:00N 35°21' E 139°43'3 5.7
2019-Sep-16 20:30N 35°18' E 139°44'3 6.6
2019-Sep-16 20:00N 35°15' E 139°47'3 6.4
2019-Sep-16 19:30N 35°12' E 139°47'6 5.1
2019-Sep-16 18:16N 35°06' E 139°45'  
2019-Sep-11 08:30N 33°59' E 135°01'3 6.0
2019-Sep-11 08:00N 34°02' E 135°00'4 6.2
2019-Sep-11 07:21N 34°06' E 134°60'4 7.2
2019-Sep-11 06:45N 34°11' E 134°59'3 6.7
2019-Sep-11 06:22N 34°13' E 134°59'3 7.1
2019-Sep-11 06:00N 34°16' E 134°59'3 7.0
2019-Sep-11 05:30N 34°19' E 134°59'3 6.7
2019-Sep-11 05:00N 34°22' E 135°00'4 7.2
2019-Sep-11 04:30N 34°26' E 135°03'4 7.4
2019-Sep-11 04:00N 34°29' E 135°05'4 7.3
2019-Sep-11 03:30N 34°32' E 135°07'3 6.6
2019-Sep-11 03:00N 34°35' E 135°09'3 6.1
2019-Sep-11 02:30N 34°38' E 135°11'3 5.3
2019-Sep-11 02:00N 34°40' E 135°11'1 1.3
2019-Sep-11 01:19N 34°41' E 135°11'0 0.0
2019-Sep-11 00:55N 34°41' E 135°11'0 0.0
2019-Sep-11 00:25N 34°41' E 135°11'0 0.0
2019-Sep-10 23:51N 34°41' E 135°11'0 0.0
2019-Sep-10 23:27N 34°41' E 135°11'0 0.0
2019-Sep-10 22:57N 34°41' E 135°11'0 0.0
2019-Sep-10 22:27N 34°41' E 135°11'0 0.0
2019-Sep-10 21:57N 34°41' E 135°11'0 0.0
2019-Sep-10 21:15N 34°41' E 135°11'0 0.0
2019-Sep-10 20:57N 34°41' E 135°11'0 0.0
2019-Sep-10 20:21N 34°41' E 135°11'0 0.0
2019-Sep-10 19:57N 34°41' E 135°11'0 0.0
2019-Sep-10 19:27N 34°41' E 135°11'0 0.0
2019-Sep-10 18:45N 34°41' E 135°11'0 0.0
2019-Sep-10 18:27N 34°41' E 135°11'0 0.0
2019-Sep-10 17:57N 34°41' E 135°11'0 0.0
2019-Sep-10 17:27N 34°41' E 135°11'0 0.0
2019-Sep-10 16:57N 34°41' E 135°11'0 0.0
2019-Sep-10 16:27N 34°41' E 135°11'0 0.0
2019-Sep-10 15:57N 34°41' E 135°11'0 0.0
2019-Sep-10 15:27N 34°41' E 135°11'0 0.0
2019-Sep-10 14:57N 34°41' E 135°11'0 0.0
2019-Sep-10 14:27N 34°41' E 135°11'0 0.0
2019-Sep-10 13:51N 34°41' E 135°11'0 0.0
2019-Sep-10 13:27N 34°41' E 135°11'0 0.0
2019-Sep-10 12:57N 34°41' E 135°11'0 0.0
2019-Sep-10 12:27N 34°41' E 135°11'0 0.0
2019-Sep-10 11:57N 34°41' E 135°11'0 0.0
2019-Sep-10 11:27N 34°41' E 135°11'0 0.0
2019-Sep-10 10:57N 34°41' E 135°11'0 0.0
2019-Sep-10 10:27N 34°41' E 135°11'0 0.0
2019-Sep-10 09:57N 34°41' E 135°11'0 0.0
2019-Sep-10 09:27N 34°41' E 135°11'0 0.0
2019-Sep-10 08:57N 34°41' E 135°11'0 0.0
2019-Sep-10 08:27N 34°41' E 135°11'0 0.0
2019-Sep-10 07:57N 34°41' E 135°11'0 0.0
2019-Sep-10 07:27N 34°41' E 135°11'0 0.0
2019-Sep-10 06:45N 34°41' E 135°11'0 0.0
2019-Sep-10 06:27N 34°41' E 135°11'0 0.0
2019-Sep-10 05:57N 34°41' E 135°11'0 0.0
2019-Sep-10 05:27N 34°41' E 135°11'0 0.0
2019-Sep-10 04:57N 34°41' E 135°11'  

Dump ship's entire track history